createdAt,value
2023-02-01T00:00:00.452Z,9.719169
2023-02-01T00:01:00.405Z,9.719168
2023-02-01T00:02:00.430Z,9.719155
2023-02-01T00:03:00.385Z,9.719191
2023-02-01T00:04:00.448Z,9.719006
2023-02-01T00:05:00.355Z,9.719032
2023-02-01T00:06:00.359Z,9.719049
2023-02-01T00:07:00.380Z,9.719070
2023-02-01T00:08:00.349Z,9.719027
2023-02-01T00:09:00.328Z,9.719142
2023-02-01T00:10:00.319Z,9.719028
2023-02-01T00:11:00.319Z,9.719088
2023-02-01T00:12:00.305Z,9.719027
2023-02-01T00:13:00.317Z,9.718993
2023-02-01T00:14:00.292Z,9.719198
2023-02-01T00:15:01.284Z,9.719078
2023-02-01T00:16:00.278Z,9.719049
2023-02-01T00:17:00.249Z,9.719050
2023-02-01T00:18:00.266Z,9.719194
2023-02-01T00:19:00.237Z,9.719181
2023-02-01T00:20:00.212Z,9.719131
2023-02-01T00:21:00.208Z,9.719203
2023-02-01T00:22:00.193Z,9.719137
2023-02-01T00:23:00.202Z,9.719176
2023-02-01T00:24:00.175Z,9.719196
2023-02-01T00:25:00.172Z,9.719079
2023-02-01T00:26:00.162Z,9.719176
2023-02-01T00:27:00.157Z,9.719161
2023-02-01T00:28:00.139Z,9.719124
2023-02-01T00:29:00.127Z,9.719212
2023-02-01T00:30:00.115Z,9.719274
2023-02-01T00:31:00.283Z,9.719248
2023-02-01T00:32:00.156Z,9.719076
2023-02-01T00:33:00.097Z,9.719139
2023-02-01T00:34:00.111Z,9.719198
2023-02-01T00:35:00.097Z,9.719160
2023-02-01T00:36:00.079Z,9.719162
2023-02-01T00:37:00.057Z,9.719164
2023-02-01T00:38:00.034Z,9.719153
2023-02-01T00:39:00.046Z,9.719197
2023-02-01T00:40:00.028Z,9.719242
2023-02-01T00:41:00.004Z,9.719315
2023-02-01T00:42:00.008Z,9.719295
2023-02-01T00:43:00.003Z,9.719325
2023-02-01T00:43:59.978Z,9.719218
2023-02-01T00:44:59.980Z,9.719138
2023-02-01T00:45:59.966Z,9.719150
2023-02-01T00:46:59.952Z,9.719039
2023-02-01T00:47:59.970Z,9.719034
2023-02-01T00:48:59.946Z,9.719034
2023-02-01T00:49:59.926Z,9.719034
2023-02-01T00:50:59.915Z,9.719034
2023-02-01T00:51:59.894Z,9.719034
2023-02-01T00:52:59.908Z,9.719034
2023-02-01T00:53:59.872Z,9.719034
2023-02-01T00:54:59.883Z,9.719034
2023-02-01T00:55:59.862Z,9.718914
2023-02-01T00:56:59.903Z,9.718972
2023-02-01T00:57:59.850Z,9.719029
2023-02-01T00:58:59.832Z,9.719060
2023-02-01T00:59:59.821Z,9.719192
2023-02-01T01:00:59.879Z,9.719077
2023-02-01T01:01:59.851Z,9.719022
2023-02-01T01:02:59.804Z,9.719050
2023-02-01T01:03:59.824Z,9.719055
2023-02-01T01:04:59.790Z,9.719103
2023-02-01T01:05:59.760Z,9.719185
2023-02-01T01:06:59.751Z,9.719177
2023-02-01T01:07:59.737Z,9.719118
2023-02-01T01:08:59.767Z,9.719172
2023-02-01T01:09:59.746Z,9.719124
2023-02-01T01:11:07.272Z,9.719122
2023-02-01T01:11:59.722Z,9.719185
2023-02-01T01:12:59.699Z,9.719120
2023-02-01T01:13:59.679Z,9.719160
2023-02-01T01:14:59.666Z,9.719136
2023-02-01T01:15:59.707Z,9.719120
2023-02-01T01:16:59.700Z,9.719049
2023-02-01T01:17:59.651Z,9.719184
2023-02-01T01:18:59.681Z,9.719109
2023-02-01T01:20:00.040Z,9.719020
2023-02-01T01:21:00.610Z,9.718914
2023-02-01T01:21:59.615Z,9.719078
2023-02-01T01:22:59.667Z,9.719127
2023-02-01T01:23:59.590Z,9.719077
2023-02-01T01:24:59.595Z,9.719133
2023-02-01T01:25:59.575Z,9.719030
2023-02-01T01:26:59.556Z,9.719062
2023-02-01T01:27:59.573Z,9.719110
2023-02-01T01:28:59.559Z,9.718978
2023-02-01T01:29:59.558Z,9.719075
2023-02-01T01:30:59.650Z,9.719084
2023-02-01T01:31:59.513Z,9.719110
2023-02-01T01:32:59.508Z,9.718955
2023-02-01T01:33:59.502Z,9.719004
2023-02-01T01:34:59.493Z,9.718926
2023-02-01T01:35:59.476Z,9.719169
2023-02-01T01:36:59.466Z,9.719001
2023-02-01T01:37:59.458Z,9.719293
2023-02-01T01:38:59.445Z,9.719084
2023-02-01T01:39:59.453Z,9.719174
2023-02-01T01:40:59.447Z,9.718967
2023-02-01T01:41:59.428Z,9.719085
2023-02-01T01:42:59.405Z,9.719028
2023-02-01T01:43:59.419Z,9.718947
2023-02-01T01:44:59.397Z,9.718921
2023-02-01T01:45:59.407Z,9.719008
2023-02-01T01:46:59.433Z,9.719245
2023-02-01T01:48:00.367Z,9.719264
2023-02-01T01:48:59.355Z,9.718951
2023-02-01T01:49:59.337Z,9.719143
2023-02-01T01:50:59.359Z,9.719222
2023-02-01T01:51:59.330Z,9.719405
2023-02-01T01:52:59.331Z,9.719125
2023-02-01T01:53:59.304Z,9.719080
2023-02-01T01:54:59.304Z,9.719174
2023-02-01T01:55:59.326Z,9.719112
2023-02-01T01:56:59.343Z,9.719119
2023-02-01T01:57:59.277Z,9.719064
2023-02-01T01:58:59.262Z,9.719002
2023-02-01T01:59:59.273Z,9.719088
2023-02-01T02:00:59.259Z,9.718771
2023-02-01T02:01:59.345Z,9.718704
2023-02-01T02:02:59.245Z,9.718693
2023-02-01T02:03:59.209Z,9.718887
2023-02-01T02:04:59.197Z,9.718971
2023-02-01T02:05:59.195Z,9.718906
2023-02-01T02:06:59.190Z,9.718969
2023-02-01T02:07:59.197Z,9.719219
2023-02-01T02:08:59.169Z,9.719191
2023-02-01T02:10:01.248Z,9.719119
2023-02-01T02:11:00.143Z,9.719037
2023-02-01T02:11:59.140Z,9.719070
2023-02-01T02:12:59.137Z,9.719059
2023-02-01T02:13:59.140Z,9.719204
2023-02-01T02:14:59.120Z,9.718855
2023-02-01T02:15:59.115Z,9.719027
2023-02-01T02:16:59.102Z,9.719054
2023-02-01T02:17:59.093Z,9.719171
2023-02-01T02:18:59.091Z,9.719254
2023-02-01T02:19:59.072Z,9.719016
2023-02-01T02:20:59.059Z,9.719005
2023-02-01T02:21:59.044Z,9.719005
2023-02-01T02:22:59.032Z,9.719005
2023-02-01T02:23:59.022Z,9.719005
2023-02-01T02:24:59.025Z,9.719005
2023-02-01T02:25:58.988Z,9.719005
2023-02-01T02:27:00.005Z,9.719005
2023-02-01T02:27:58.983Z,9.719005
2023-02-01T02:28:58.977Z,9.719158
2023-02-01T02:29:58.963Z,9.719006
2023-02-01T02:30:59.007Z,9.718968
2023-02-01T02:31:59.029Z,9.718883
2023-02-01T02:32:58.932Z,9.718943
2023-02-01T02:33:58.924Z,9.718990
2023-02-01T02:34:58.931Z,9.719102
2023-02-01T02:35:58.922Z,9.719150
2023-02-01T02:36:58.913Z,9.719155
2023-02-01T02:37:58.895Z,9.719110
2023-02-01T02:38:58.871Z,9.719062
2023-02-01T02:39:58.864Z,9.719050
2023-02-01T02:40:58.859Z,9.719120
2023-02-01T02:41:58.850Z,9.719195
2023-02-01T02:42:58.858Z,9.719075
2023-02-01T02:43:58.840Z,9.719101
2023-02-01T02:44:58.806Z,9.719201
2023-02-01T02:45:58.822Z,9.719232
2023-02-01T02:46:58.797Z,9.719234
2023-02-01T02:47:58.793Z,9.719097
2023-02-01T02:48:58.797Z,9.719018
2023-02-01T02:49:58.813Z,9.719000
2023-02-01T02:50:58.766Z,9.718991
2023-02-01T02:51:58.748Z,9.719028
2023-02-01T02:52:58.738Z,9.718954
2023-02-01T02:53:58.746Z,9.719082
2023-02-01T02:54:58.723Z,9.719111
2023-02-01T02:55:58.715Z,9.719184
2023-02-01T02:56:58.715Z,9.719191
2023-02-01T02:57:59.765Z,9.719185
2023-02-01T02:58:58.702Z,9.719097
2023-02-01T02:59:58.676Z,9.719233
2023-02-01T03:00:58.704Z,9.719173
2023-02-01T03:01:58.666Z,9.719190
2023-02-01T03:02:58.716Z,9.719236
2023-02-01T03:03:58.637Z,9.719219
2023-02-01T03:04:58.609Z,9.719316
2023-02-01T03:05:58.636Z,9.719259
2023-02-01T03:06:58.639Z,9.719243
2023-02-01T03:07:58.614Z,9.719190
2023-02-01T03:08:58.587Z,9.719173
2023-02-01T03:09:58.581Z,9.719200
2023-02-01T03:10:58.598Z,9.719152
2023-02-01T03:11:58.557Z,9.719163
2023-02-01T03:12:58.554Z,9.719165
2023-02-01T03:13:58.559Z,9.719228
2023-02-01T03:14:58.546Z,9.719256
2023-02-01T03:15:58.543Z,9.719283
2023-02-01T03:16:58.513Z,9.719361
2023-02-01T03:17:58.510Z,9.719333
2023-02-01T03:18:58.521Z,9.719342
2023-02-01T03:19:58.494Z,9.719419
2023-02-01T03:20:58.471Z,9.719428
2023-02-01T03:25:45.900Z,9.719142
2023-02-01T03:26:45.978Z,9.719108
2023-02-01T03:27:45.864Z,9.719141
2023-02-01T03:28:45.858Z,9.719182
2023-02-01T03:29:45.861Z,9.719199
2023-02-01T03:30:45.900Z,9.719285
2023-02-01T03:31:45.877Z,9.719370
2023-02-01T03:32:45.828Z,9.719398
2023-02-01T03:33:45.813Z,9.719386
2023-02-01T03:34:45.817Z,9.719367
2023-02-01T03:35:45.791Z,9.719405
2023-02-01T03:36:45.782Z,9.719389
2023-02-01T03:37:45.793Z,9.719348
2023-02-01T03:38:45.773Z,9.719348
2023-02-01T03:39:45.750Z,9.719400
2023-02-01T03:40:45.736Z,9.719234
2023-02-01T03:41:45.727Z,9.719301
2023-02-01T03:42:45.726Z,9.719194
2023-02-01T03:43:45.719Z,9.719210
2023-02-01T03:44:45.699Z,9.719257
2023-02-01T03:45:45.765Z,9.719183
2023-02-01T03:46:45.693Z,9.719255
2023-02-01T03:47:45.661Z,9.719186
2023-02-01T03:48:45.653Z,9.719066
2023-02-01T03:49:45.661Z,9.718993
2023-02-01T03:50:45.668Z,9.719012
2023-02-01T03:51:45.671Z,9.718979
2023-02-01T03:52:45.623Z,9.719108
2023-02-01T03:53:45.607Z,9.719120
2023-02-01T03:54:45.627Z,9.719226
2023-02-01T03:55:45.622Z,9.719161
2023-02-01T03:56:45.581Z,9.719224
2023-02-01T03:57:45.578Z,9.718811
2023-02-01T03:58:45.565Z,9.718314
2023-02-01T03:59:45.555Z,9.718519
2023-02-01T04:00:45.563Z,9.718578
2023-02-01T04:01:45.532Z,9.718748
2023-02-01T04:02:45.597Z,9.718928
2023-02-01T04:03:45.530Z,9.719189
2023-02-01T04:04:45.517Z,9.719038
2023-02-01T04:05:45.521Z,9.719069
2023-02-01T04:06:45.483Z,9.719198
2023-02-01T04:07:45.472Z,9.719160
2023-02-01T04:08:45.472Z,9.719089
2023-02-01T04:09:45.461Z,9.719069
2023-02-01T04:10:45.495Z,9.719015
2023-02-01T04:11:45.442Z,9.718924
2023-02-01T04:12:45.433Z,9.719048
2023-02-01T04:13:45.425Z,9.719055
2023-02-01T04:14:45.411Z,9.719105
2023-02-01T04:15:45.401Z,9.719040
2023-02-01T04:16:45.478Z,9.719023
2023-02-01T04:17:45.389Z,9.719002
2023-02-01T04:18:45.372Z,9.719141
2023-02-01T04:19:45.362Z,9.719182
2023-02-01T04:20:45.356Z,9.719175
2023-02-01T04:21:45.385Z,9.719205
2023-02-01T04:22:45.353Z,9.719285
2023-02-01T04:23:45.327Z,9.719296
2023-02-01T04:24:45.312Z,9.719268
2023-02-01T04:25:45.309Z,9.719321
2023-02-01T04:26:45.413Z,9.719269
2023-02-01T04:27:45.311Z,9.719207
2023-02-01T04:28:45.275Z,9.719077
2023-02-01T04:29:45.269Z,9.719130
2023-02-01T04:30:45.301Z,9.719094
2023-02-01T04:31:45.330Z,9.719008
2023-02-01T04:32:45.239Z,9.719087
2023-02-01T04:33:45.239Z,9.719113
2023-02-01T04:34:45.204Z,9.719079
2023-02-01T04:35:45.206Z,9.719089
2023-02-01T04:36:47.212Z,9.719176
2023-02-01T04:37:46.178Z,9.719247
2023-02-01T04:38:45.175Z,9.719213
2023-02-01T04:39:45.182Z,9.719172
2023-02-01T04:40:45.154Z,9.719195
2023-02-01T04:41:45.167Z,9.719121
2023-02-01T04:42:45.132Z,9.719107
2023-02-01T04:43:45.125Z,9.719165
2023-02-01T04:44:45.112Z,9.719223
2023-02-01T04:45:45.148Z,9.719216
2023-02-01T04:46:45.106Z,9.719194
2023-02-01T04:47:45.092Z,9.719131
2023-02-01T04:48:45.077Z,9.719244
2023-02-01T04:49:45.071Z,9.719316
2023-02-01T04:50:45.043Z,9.719336
2023-02-01T04:51:45.043Z,9.719199
2023-02-01T04:52:45.063Z,9.719209
2023-02-01T04:53:45.023Z,9.719209
2023-02-01T04:54:45.017Z,9.719209
2023-02-01T04:55:44.993Z,9.719209
2023-02-01T04:56:45.004Z,9.719209
2023-02-01T04:57:44.997Z,9.719209
2023-02-01T04:58:44.993Z,9.719209
2023-02-01T04:59:44.965Z,9.719209
2023-02-01T05:00:44.958Z,9.719209
2023-02-01T05:01:45.689Z,9.719209
2023-02-01T05:02:44.957Z,9.718829
2023-02-01T05:03:44.929Z,9.718813
2023-02-01T05:04:44.982Z,9.718732
2023-02-01T05:05:44.904Z,9.718667
2023-02-01T05:06:44.903Z,9.718751
2023-02-01T05:07:44.910Z,9.718822
2023-02-01T05:08:44.884Z,9.718785
2023-02-01T05:09:44.860Z,9.718798
2023-02-01T05:10:44.859Z,9.719032
2023-02-01T05:11:44.850Z,9.719067
2023-02-01T05:12:44.835Z,9.719060
2023-02-01T05:13:44.839Z,9.719059
2023-02-01T05:14:44.835Z,9.719021
2023-02-01T05:15:44.872Z,9.718892
2023-02-01T05:16:44.807Z,9.719200
2023-02-01T05:17:44.791Z,9.719311
2023-02-01T05:18:44.788Z,9.719295
2023-02-01T05:19:44.783Z,9.719202
2023-02-01T05:20:44.758Z,9.719258
2023-02-01T05:21:44.785Z,9.719107
2023-02-01T05:22:44.740Z,9.719234
2023-02-01T05:23:44.731Z,9.719178
2023-02-01T05:24:44.722Z,9.719080
2023-02-01T05:25:44.700Z,9.719541
2023-02-01T05:26:44.870Z,9.719056
2023-02-01T05:27:44.699Z,9.719334
2023-02-01T05:28:44.693Z,9.719452
2023-02-01T05:29:44.686Z,9.719169
2023-02-01T05:30:44.853Z,9.719199
2023-02-01T05:31:44.771Z,9.719485
2023-02-01T05:32:44.676Z,9.719241
2023-02-01T05:33:44.645Z,9.719318
2023-02-01T05:34:44.631Z,9.719315
2023-02-01T05:35:44.618Z,9.719296
2023-02-01T05:36:44.601Z,9.719130
2023-02-01T05:37:44.618Z,9.719065
2023-02-01T05:38:44.578Z,9.719251
2023-02-01T05:39:44.585Z,9.719110
2023-02-01T05:40:44.562Z,9.719313
2023-02-01T05:41:44.558Z,9.719481
2023-02-01T05:42:44.544Z,9.719290
2023-02-01T05:43:44.574Z,9.719368
2023-02-01T05:44:44.524Z,9.719264
2023-02-01T05:45:44.519Z,9.719063
2023-02-01T05:46:44.498Z,9.719127
2023-02-01T05:47:44.491Z,9.719202
2023-02-01T05:48:44.514Z,9.719180
2023-02-01T05:49:44.487Z,9.719172
2023-02-01T05:50:44.461Z,9.719084
2023-02-01T05:51:44.450Z,9.719172
2023-02-01T05:52:44.449Z,9.719223
2023-02-01T05:53:44.436Z,9.719155
2023-02-01T05:54:44.437Z,9.719028
2023-02-01T05:55:44.431Z,9.719096
2023-02-01T05:56:44.401Z,9.718997
2023-02-01T05:57:44.415Z,9.719075
2023-02-01T05:58:44.387Z,9.719165
2023-02-01T05:59:44.388Z,9.719217
2023-02-01T06:00:44.365Z,9.719228
2023-02-01T06:01:44.352Z,9.719223
2023-02-01T06:02:44.345Z,9.719143
2023-02-01T06:03:44.353Z,9.718874
2023-02-01T06:04:44.339Z,9.719012
2023-02-01T06:05:44.339Z,9.719075
2023-02-01T06:06:44.306Z,9.719129
2023-02-01T06:07:44.304Z,9.718951
2023-02-01T06:08:44.289Z,9.719087
2023-02-01T06:09:44.294Z,9.719028
2023-02-01T06:10:44.286Z,9.719121
2023-02-01T06:11:44.269Z,9.719043
2023-02-01T06:12:44.251Z,9.719115
2023-02-01T06:13:44.252Z,9.719102
2023-02-01T06:14:44.248Z,9.719132
2023-02-01T06:15:44.287Z,9.718946
2023-02-01T06:16:44.205Z,9.718791
2023-02-01T06:17:44.206Z,9.719094
2023-02-01T06:18:44.204Z,9.719354
2023-02-01T06:19:44.177Z,9.719236
2023-02-01T06:20:44.186Z,9.719166
2023-02-01T06:21:44.168Z,9.719105
2023-02-01T06:22:44.156Z,9.719179
2023-02-01T06:23:44.142Z,9.719269
2023-02-01T06:24:44.134Z,9.719131
2023-02-01T06:25:44.142Z,9.719185
2023-02-01T06:26:44.178Z,9.719204
2023-02-01T06:27:44.099Z,9.719131
2023-02-01T06:28:44.081Z,9.719174
2023-02-01T06:29:44.081Z,9.719256
2023-02-01T06:30:44.139Z,9.719219
2023-02-01T06:31:44.125Z,9.719117
2023-02-01T06:32:44.056Z,9.719069
2023-02-01T06:33:44.051Z,9.719103
2023-02-01T06:34:44.034Z,9.719046
2023-02-01T06:35:44.024Z,9.719072
2023-02-01T06:36:44.047Z,9.719115
2023-02-01T06:37:43.990Z,9.719400
2023-02-01T06:38:43.998Z,9.719458
2023-02-01T06:39:43.972Z,9.719217
2023-02-01T06:40:44.045Z,9.719281
2023-02-01T06:41:43.983Z,9.719126
2023-02-01T06:42:43.948Z,9.719322
2023-02-01T06:43:43.935Z,9.719129
2023-02-01T06:44:43.940Z,9.719188
2023-02-01T06:45:43.927Z,9.719249
2023-02-01T06:46:43.967Z,9.719058
2023-02-01T06:47:43.932Z,9.719168
2023-02-01T06:48:43.899Z,9.719073
2023-02-01T06:49:43.887Z,9.719026
2023-02-01T06:50:43.875Z,9.719157
2023-02-01T06:51:43.859Z,9.719430
2023-02-01T06:52:43.890Z,9.719233
2023-02-01T06:53:43.852Z,9.719175
2023-02-01T06:54:43.829Z,9.719136
2023-02-01T06:55:43.823Z,9.719181
2023-02-01T06:56:43.809Z,9.719178
2023-02-01T06:57:43.799Z,9.719205
2023-02-01T06:58:43.822Z,9.719257
2023-02-01T06:59:43.789Z,9.719275
2023-02-01T07:00:43.797Z,9.719260
2023-02-01T07:01:43.810Z,9.719213
2023-02-01T07:02:43.757Z,9.719202
2023-02-01T07:03:43.762Z,9.719251
2023-02-01T07:04:43.751Z,9.719216
2023-02-01T07:05:43.721Z,9.719238
2023-02-01T07:06:43.709Z,9.719195
2023-02-01T07:07:43.705Z,9.719200
2023-02-01T07:08:43.706Z,9.719092
2023-02-01T07:09:43.714Z,9.719082
2023-02-01T07:10:43.694Z,9.719112
2023-02-01T07:12:15.584Z,9.719174
2023-02-01T07:12:43.673Z,9.719197
2023-02-01T07:13:43.673Z,9.719162
2023-02-01T07:14:43.665Z,9.719196
2023-02-01T07:15:43.671Z,9.719058
2023-02-01T07:16:43.622Z,9.719411
2023-02-01T07:17:43.614Z,9.719283
2023-02-01T07:18:43.619Z,9.719275
2023-02-01T07:19:43.604Z,9.719262
2023-02-01T07:20:43.612Z,9.719225
2023-02-01T07:21:43.588Z,9.719237
2023-02-01T07:22:43.573Z,9.719161
2023-02-01T07:23:43.578Z,9.719308
2023-02-01T07:24:43.618Z,9.719157
2023-02-01T07:25:43.544Z,9.719133
2023-02-01T07:26:43.594Z,9.719089
2023-02-01T07:27:43.531Z,9.719137
2023-02-01T07:28:43.576Z,9.719221
2023-02-01T07:29:43.615Z,9.719213
2023-02-01T07:30:43.558Z,9.719322
2023-02-01T07:31:43.511Z,9.719172
2023-02-01T07:32:43.528Z,9.719025
2023-02-01T07:33:43.484Z,9.719137
2023-02-01T07:34:43.467Z,9.719353
2023-02-01T07:35:43.477Z,9.719199
2023-02-01T07:36:43.441Z,9.719301
2023-02-01T07:37:43.425Z,9.719391
2023-02-01T07:38:43.391Z,9.719291
2023-02-01T07:39:43.443Z,9.719071
2023-02-01T07:40:43.417Z,9.719219
2023-02-01T07:41:43.398Z,9.718984
2023-02-01T07:42:43.383Z,9.719105
2023-02-01T07:43:43.403Z,9.719230
2023-02-01T07:44:43.372Z,9.719238
2023-02-01T07:45:43.381Z,9.719236
2023-02-01T07:46:43.358Z,9.719239
2023-02-01T07:47:43.336Z,9.719261
2023-02-01T07:48:43.321Z,9.719239
2023-02-01T07:49:43.319Z,9.719263
2023-02-01T07:50:43.322Z,9.719266
2023-02-01T07:51:43.319Z,9.719257
2023-02-01T07:52:43.296Z,9.719317
2023-02-01T07:53:43.284Z,9.719344
2023-02-01T07:54:43.304Z,9.719285
2023-02-01T07:55:43.266Z,9.719224
2023-02-01T07:56:43.281Z,9.719173
2023-02-01T07:57:43.226Z,9.719219
2023-02-01T07:58:43.229Z,9.719290
2023-02-01T07:59:43.219Z,9.719270
2023-02-01T08:00:43.216Z,9.719217
2023-02-01T08:01:43.205Z,9.719154
2023-02-01T08:02:43.241Z,9.719181
2023-02-01T08:03:43.202Z,9.719228
2023-02-01T08:04:43.183Z,9.719262
2023-02-01T08:05:43.185Z,9.719365
2023-02-01T08:06:43.162Z,9.719300
2023-02-01T08:07:43.168Z,9.719233
2023-02-01T08:08:43.140Z,9.719234
2023-02-01T08:09:43.121Z,9.719284
2023-02-01T08:10:43.107Z,9.719280
2023-02-01T08:11:43.090Z,9.719270
2023-02-01T08:12:43.110Z,9.719319
2023-02-01T08:13:43.095Z,9.719303
2023-02-01T08:14:43.066Z,9.719230
2023-02-01T08:15:43.068Z,9.719243
2023-02-01T08:16:43.130Z,9.719272
2023-02-01T08:17:43.047Z,9.719295
2023-02-01T08:18:43.052Z,9.719236
2023-02-01T08:19:43.028Z,9.719211
2023-02-01T08:20:43.013Z,9.719245
2023-02-01T08:21:43.018Z,9.719278
2023-02-01T08:22:42.990Z,9.719330
2023-02-01T08:23:43.021Z,9.719292
2023-02-01T08:24:42.966Z,9.719299
2023-02-01T08:25:42.973Z,9.719202
2023-02-01T08:26:43.041Z,9.719128
2023-02-01T08:27:42.980Z,9.719129
2023-02-01T08:28:42.960Z,9.719139
2023-02-01T08:29:42.929Z,9.719122
2023-02-01T08:30:42.977Z,9.719069
2023-02-01T08:31:43.075Z,9.719151
2023-02-01T08:32:42.893Z,9.719106
2023-02-01T08:33:42.899Z,9.719049
2023-02-01T08:34:42.891Z,9.719025
2023-02-01T08:35:44.223Z,9.719051
2023-02-01T08:36:43.888Z,9.719096
2023-02-01T08:37:42.863Z,9.719131
2023-02-01T08:38:42.844Z,9.718992
2023-02-01T08:39:42.835Z,9.719070
2023-02-01T08:40:42.831Z,9.719096
2023-02-01T08:41:42.850Z,9.719068
2023-02-01T08:42:42.813Z,9.718875
2023-02-01T08:43:42.796Z,9.719047
2023-02-01T08:44:42.771Z,9.719062
2023-02-01T08:45:42.770Z,9.718929
2023-02-01T08:46:42.771Z,9.718760
2023-02-01T08:47:42.769Z,9.718596
2023-02-01T08:48:42.729Z,9.718994
2023-02-01T08:49:42.754Z,9.719168
2023-02-01T08:50:42.716Z,9.719070
2023-02-01T08:51:42.761Z,9.719047
2023-02-01T08:52:42.704Z,9.718833
2023-02-01T08:53:42.688Z,9.718752
2023-02-01T08:54:42.738Z,9.718966
2023-02-01T08:55:42.661Z,9.719028
2023-02-01T08:56:42.737Z,9.719015
2023-02-01T08:57:42.686Z,9.719042
2023-02-01T08:58:42.661Z,9.719012
2023-02-01T08:59:42.628Z,9.718515
2023-02-01T09:00:42.623Z,9.718831
2023-02-01T09:01:42.649Z,9.718919
2023-02-01T09:02:42.622Z,9.718961
2023-02-01T09:03:42.703Z,9.719141
2023-02-01T09:04:42.589Z,9.718798
2023-02-01T09:05:49.334Z,9.718989
2023-02-01T09:06:44.602Z,9.718962
2023-02-01T09:07:42.549Z,9.718997
2023-02-01T09:08:42.547Z,9.719043
2023-02-01T09:09:42.522Z,9.719140
2023-02-01T09:10:42.513Z,9.719016
2023-02-01T09:11:42.534Z,9.719123
2023-02-01T09:12:42.490Z,9.719208
2023-02-01T09:13:42.557Z,9.719110
2023-02-01T09:14:42.495Z,9.719009
2023-02-01T09:15:42.519Z,9.719090
2023-02-01T09:16:42.499Z,9.719173
2023-02-01T09:17:42.470Z,9.719142
2023-02-01T09:18:50.894Z,9.719093
2023-02-01T09:19:43.430Z,9.719166
2023-02-01T09:20:43.440Z,9.719190
2023-02-01T09:21:42.423Z,9.719189
2023-02-01T09:22:42.406Z,9.719164
2023-02-01T09:23:42.415Z,9.719104
2023-02-01T09:24:42.410Z,9.719115
2023-02-01T09:25:43.393Z,9.719077
2023-02-01T09:26:42.397Z,9.719075
2023-02-01T09:27:42.360Z,9.718920
2023-02-01T09:28:42.357Z,9.719116
2023-02-01T09:29:42.483Z,9.719116
2023-02-01T09:30:42.455Z,9.719042
2023-02-01T09:31:49.879Z,9.719161
2023-02-01T09:32:44.315Z,9.719331
2023-02-01T09:33:42.325Z,9.719333
2023-02-01T09:34:42.342Z,9.719276
2023-02-01T09:35:42.312Z,9.719131
2023-02-01T09:36:42.309Z,9.719137
2023-02-01T09:37:42.276Z,9.719228
2023-02-01T09:38:52.365Z,9.719152
2023-02-01T09:39:44.266Z,9.719205
2023-02-01T09:40:42.255Z,9.719289
2023-02-01T09:41:42.231Z,9.719232
2023-02-01T09:42:42.217Z,9.719249
2023-02-01T09:43:43.260Z,9.719263
2023-02-01T09:44:44.657Z,9.719294
2023-02-01T09:45:42.171Z,9.719265
2023-02-01T09:46:42.180Z,9.719257
2023-02-01T09:47:42.166Z,9.719211
2023-02-01T09:48:42.167Z,9.719254
2023-02-01T09:49:42.160Z,9.719308
2023-02-01T09:50:42.199Z,9.719280
2023-02-01T09:51:42.158Z,9.719194
2023-02-01T09:52:42.134Z,9.719157
2023-02-01T09:53:42.103Z,9.719211
2023-02-01T09:54:42.088Z,9.719283
2023-02-01T09:55:42.111Z,9.719141
2023-02-01T09:56:42.113Z,9.719030
2023-02-01T09:57:42.057Z,9.719374
2023-02-01T09:58:42.074Z,9.719657
2023-02-01T09:59:42.072Z,9.719437
2023-02-01T10:00:42.022Z,9.719040
2023-02-01T10:01:42.086Z,9.718824
2023-02-01T10:02:42.021Z,9.719121
2023-02-01T10:03:42.002Z,9.718963
2023-02-01T10:04:41.988Z,9.719086
2023-02-01T10:05:41.975Z,9.718955
2023-02-01T10:06:41.974Z,9.718831
2023-02-01T10:07:41.998Z,9.719135
2023-02-01T10:08:42.023Z,9.719174
2023-02-01T10:09:41.923Z,9.719147
2023-02-01T10:10:41.929Z,9.719125
2023-02-01T10:11:41.966Z,9.719141
2023-02-01T10:12:41.902Z,9.719097
2023-02-01T10:13:41.914Z,9.719119
2023-02-01T10:14:41.950Z,9.719254
2023-02-01T10:15:41.936Z,9.719354
2023-02-01T10:16:41.979Z,9.719241
2023-02-01T10:17:41.861Z,9.719463
2023-02-01T10:18:41.882Z,9.719391
2023-02-01T10:19:41.859Z,9.718993
2023-02-01T10:20:41.831Z,9.719007
2023-02-01T10:21:41.806Z,9.719093
2023-02-01T10:23:05.028Z,9.719110
2023-02-01T10:23:43.849Z,9.719132
2023-02-01T10:24:41.815Z,9.719170
2023-02-01T10:25:41.831Z,9.719172
2023-02-01T10:26:41.907Z,9.719225
2023-02-01T10:27:41.791Z,9.719144
2023-02-01T10:28:41.754Z,9.719102
2023-02-01T10:29:41.784Z,9.719030
2023-02-01T10:30:41.876Z,9.719017
2023-02-01T10:31:41.804Z,9.718946
2023-02-01T10:32:41.743Z,9.719139
2023-02-01T10:33:41.703Z,9.718825
2023-02-01T10:34:41.703Z,9.718989
2023-02-01T10:35:41.677Z,9.718968
2023-02-01T10:36:41.733Z,9.718990
2023-02-01T10:37:41.704Z,9.719095
2023-02-01T10:38:41.647Z,9.719204
2023-02-01T10:39:41.714Z,9.718909
2023-02-01T10:40:42.660Z,9.719030
2023-02-01T10:41:41.639Z,9.719275
2023-02-01T10:42:41.607Z,9.719088
2023-02-01T10:43:41.682Z,9.719029
2023-02-01T10:44:41.644Z,9.719110
2023-02-01T10:45:41.598Z,9.719069
2023-02-01T10:46:41.591Z,9.719060
2023-02-01T10:47:41.566Z,9.719189
2023-02-01T10:48:41.549Z,9.719222
2023-02-01T10:49:41.588Z,9.718965
2023-02-01T10:50:41.595Z,9.719019
2023-02-01T10:51:41.575Z,9.719096
2023-02-01T10:52:41.517Z,9.718907
2023-02-01T10:53:41.530Z,9.718398
2023-02-01T10:54:41.523Z,9.719039
2023-02-01T10:55:41.551Z,9.719194
2023-02-01T10:56:41.484Z,9.719168
2023-02-01T10:57:41.482Z,9.719090
2023-02-01T10:58:41.465Z,9.719218
2023-02-01T10:59:41.471Z,9.719272
2023-02-01T11:00:41.435Z,9.719162
2023-02-01T11:01:41.464Z,9.719242
2023-02-01T11:02:41.444Z,9.719101
2023-02-01T11:03:41.427Z,9.718998
2023-02-01T11:04:41.416Z,9.719108
2023-02-01T11:05:41.374Z,9.719150
2023-02-01T11:06:41.376Z,9.719108
2023-02-01T11:07:41.342Z,9.719105
2023-02-01T11:08:41.348Z,9.719238
2023-02-01T11:09:41.371Z,9.719185
2023-02-01T11:10:41.357Z,9.719095
2023-02-01T11:11:41.319Z,9.719191
2023-02-01T11:12:41.319Z,9.719122
2023-02-01T11:13:41.304Z,9.719174
2023-02-01T11:14:41.320Z,9.719096
2023-02-01T11:15:41.310Z,9.719056
2023-02-01T11:16:41.259Z,9.719023
2023-02-01T11:17:41.271Z,9.719096
2023-02-01T11:18:41.242Z,9.719091
2023-02-01T11:19:41.248Z,9.719136
2023-02-01T11:20:42.247Z,9.719136
2023-02-01T11:21:41.216Z,9.719175
2023-02-01T11:22:41.235Z,9.719116
2023-02-01T11:23:41.228Z,9.719090
2023-02-01T11:24:41.212Z,9.719006
2023-02-01T11:25:41.229Z,9.719024
2023-02-01T11:26:41.243Z,9.718984
2023-02-01T11:27:53.110Z,9.719030
2023-02-01T11:28:43.148Z,9.719091
2023-02-01T11:29:41.166Z,9.719103
2023-02-01T11:30:41.223Z,9.719053
2023-02-01T11:31:41.203Z,9.719090
2023-02-01T11:32:41.104Z,9.719038
2023-02-01T11:33:41.128Z,9.719049
2023-02-01T11:34:41.083Z,9.719161
2023-02-01T11:35:41.072Z,9.718974
2023-02-01T11:36:41.096Z,9.718977
2023-02-01T11:37:41.082Z,9.719199
2023-02-01T11:38:41.050Z,9.719322
2023-02-01T11:39:41.067Z,9.719285
2023-02-01T11:40:41.032Z,9.719316
2023-02-01T11:41:41.008Z,9.719229
2023-02-01T11:42:41.029Z,9.719271
2023-02-01T11:43:40.997Z,9.719313
2023-02-01T11:44:40.988Z,9.719188
2023-02-01T11:45:40.977Z,9.719204
2023-02-01T11:46:41.001Z,9.719280
2023-02-01T11:47:40.959Z,9.719437